Alexandria, Alabama
Current Conditions -  °F | °C
As of 1:53 PM on Tuesday 21 Oct 2014 (Local Time) from KANB Reporting Station
Scattered Clouds Scattered Clouds  
Wind Chill: 75°   Ceiling: Unl
Heat Index: 75°   Visibility: 10mi
Dew Point: 54°   Wind: 8mph
Humidity: 48%   Direction: 330°NNW
Pressure: 29.99"   Gusts: NA
Location:  33.77°N, 85.89°W
Report Text: KANB 211853Z AUTO 33007KT 10SM SCT050 24/12 A2999 RMK AO2 SLP152 T02390122
Loading
Personal Weather Stations






























Interactive Weather Map
Tropical Storm Tracking
New forecast layout! Learn more

10-Day Weather Forecast

Advertisements
Track Severe Weather on mobile